Time;durP1;ratioP1;P1;durP2;ratioP2;P2;SDS_P1;SDS_P2;PMS_P1;PMS_P2;Temp;Humidity;BMP_temperature;BMP_pressure;BME280_temperature;BME280_humidity;BME280_pressure;Samples;Min_cycle;Max_cycle;Signal;HPM_P1;HPM_P2
2022/09/25 00:01:34;;;;;;;2.15;0.20;;;15.30;94.80;;;;;;5072793;28;20486;-73
2022/09/25 00:04:00;;;;;;;3.60;0.40;;;15.30;94.80;;;;;;5072632;28;20116;-72
2022/09/25 00:06:28;;;;;;;7.50;0.75;;;15.30;94.80;;;;;;5072731;28;20028;-72
2022/09/25 00:08:55;;;;;;;5.57;0.40;;;15.20;94.80;;;;;;5072929;28;20037;-72
2022/09/25 00:11:31;;;;;;;3.15;0.50;;;15.20;94.80;;;;;;5072749;28;20035;-72
2022/09/25 00:13:58;;;;;;;5.40;0.50;;;15.30;94.80;;;;;;5072759;28;20511;-72
2022/09/25 00:16:27;;;;;;;4.28;0.43;;;15.20;94.80;;;;;;5072499;28;20035;-72
2022/09/25 00:21:38;;;;;;;4.43;0.40;;;15.20;94.80;;;;;;5072968;28;20035;-72
2022/09/25 00:24:07;;;;;;;3.17;0.40;;;15.20;94.80;;;;;;5072481;28;20017;-72
2022/09/25 00:26:36;;;;;;;4.60;0.40;;;15.20;94.80;;;;;;5072665;28;20058;-72
2022/09/25 00:29:03;;;;;;;1.92;0.32;;;15.20;94.80;;;;;;5072424;28;20094;-72
2022/09/25 00:31:30;;;;;;;6.63;0.50;;;15.20;94.80;;;;;;5072933;28;20035;-72
2022/09/25 00:33:57;;;;;;;5.40;0.68;;;15.20;94.80;;;;;;5072477;28;20433;-74
2022/09/25 00:36:23;;;;;;;4.82;0.50;;;15.20;94.70;;;;;;5072517;28;20051;-71
2022/09/25 00:38:49;;;;;;;2.30;0.40;;;15.10;94.60;;;;;;5072601;28;20024;-72
2022/09/25 00:41:17;;;;;;;6.13;0.40;;;15.10;94.50;;;;;;5072425;28;20024;-72
2022/09/25 00:43:43;;;;;;;6.18;1.00;;;15.10;94.40;;;;;;5072229;28;20499;-72
2022/09/25 00:46:30;;;;;;;6.68;0.43;;;15.00;94.30;;;;;;5072921;28;20016;-72
2022/09/25 00:49:11;;;;;;;4.82;1.02;;;14.80;94.40;;;;;;5076225;28;20036;-72
2022/09/25 00:51:45;;;;;;;3.92;0.50;;;14.80;94.40;;;;;;5075888;28;20078;-73
2022/09/25 00:54:21;;;;;;;3.78;0.70;;;14.70;94.40;;;;;;5075896;28;20029;-72
2022/09/25 00:56:49;;;;;;;5.07;0.50;;;14.70;94.50;;;;;;5076206;28;20111;-72
2022/09/25 00:59:23;;;;;;;4.78;0.55;;;14.60;94.30;;;;;;5075994;28;20093;-73
2022/09/25 01:01:49;;;;;;;7.35;1.05;;;14.50;94.50;;;;;;5076138;28;20090;-73
2022/09/25 01:04:22;;;;;;;2.83;0.50;;;14.30;94.50;;;;;;5075497;28;20468;-73
2022/09/25 01:06:48;;;;;;;4.63;0.70;;;14.20;94.70;;;;;;5076163;28;20040;-73
2022/09/25 01:09:16;;;;;;;5.25;0.70;;;14.20;94.80;;;;;;5075678;28;20088;-73
2022/09/25 01:11:41;;;;;;;5.25;0.57;;;14.20;94.70;;;;;;5075519;28;20496;-72
2022/09/25 01:14:09;;;;;;;3.45;0.40;;;14.20;94.70;;;;;;5075662;28;20032;-73
2022/09/25 01:16:41;;;;;;;5.22;0.50;;;14.20;94.70;;;;;;5075555;28;20070;-73
2022/09/25 01:19:26;;;;;;;3.00;0.35;;;14.20;94.80;;;;;;5075889;28;20044;-72
2022/09/25 01:21:59;;;;;;;4.55;0.47;;;14.20;94.60;;;;;;5075846;28;20033;-74
2022/09/25 01:24:33;;;;;;;;;;;14.20;94.70;;;;;;5075988;28;20025;-73
2022/09/25 01:27:17;;;;;;;4.68;0.68;;;14.10;94.70;;;;;;5075198;28;19905;-73
2022/09/25 01:29:58;;;;;;;4.25;0.40;;;14.10;94.60;;;;;;5075337;28;20500;-73
2022/09/25 01:32:45;;;;;;;4.95;0.52;;;14.10;94.70;;;;;;5075327;28;20078;-73
2022/09/25 01:35:42;;;;;;;7.07;0.80;;;14.10;94.90;;;;;;5075250;28;20479;-73
2022/09/25 01:38:46;;;;;;;2.72;0.40;;;14.20;94.80;;;;;;5075269;28;20021;-73
2022/09/25 01:41:21;;;;;;;3.35;0.50;;;14.20;94.80;;;;;;5075459;28;20024;-73
2022/09/25 01:44:10;;;;;;;5.60;0.47;;;14.30;94.70;;;;;;5075120;28;20047;-72
2022/09/25 01:46:42;;;;;;;8.70;0.60;;;14.30;94.60;;;;;;5075080;28;20536;-73
2022/09/25 01:49:23;;;;;;;5.28;0.50;;;14.30;94.20;;;;;;5075123;28;20136;-73
2022/09/25 01:51:52;;;;;;;2.50;0.50;;;14.10;94.10;;;;;;5074590;28;20067;-73
2022/09/25 01:54:27;;;;;;;6.43;1.00;;;14.00;94.50;;;;;;5074852;28;20028;-73
2022/09/25 01:57:03;;;;;;;6.45;0.55;;;13.90;94.50;;;;;;5074557;28;20027;-73
2022/09/25 01:59:43;;;;;;;5.60;0.40;;;14.00;94.70;;;;;;5074539;28;20087;-73
2022/09/25 02:02:14;;;;;;;5.18;0.80;;;14.00;94.60;;;;;;5074776;28;20021;-73
2022/09/25 02:04:49;;;;;;;2.83;0.40;;;14.10;94.60;;;;;;5074171;28;20539;-73
2022/09/25 02:07:20;;;;;;;3.60;0.50;;;14.10;94.80;;;;;;5074589;28;20032;-73
2022/09/25 02:09:51;;;;;;;6.82;0.50;;;14.20;94.50;;;;;;5074706;28;20036;-73
2022/09/25 02:12:33;;;;;;;2.10;0.40;;;14.20;94.40;;;;;;5074708;28;20016;-73
2022/09/25 02:15:04;;;;;;;3.33;0.68;;;14.30;94.40;;;;;;5074609;28;20024;-73
2022/09/25 02:20:32;;;;;;;5.47;1.02;;;14.30;94.30;;;;;;5074798;28;20034;-73
2022/09/25 02:23:03;;;;;;;;;;;14.20;93.90;;;;;;5074357;28;20132;-73
2022/09/25 02:25:41;;;;;;;4.25;0.50;;;14.10;94.10;;;;;;5074106;28;20355;-73
2022/09/25 02:28:07;;;;;;;3.15;0.40;;;14.10;94.20;;;;;;5074231;28;20052;-73
2022/09/25 02:30:33;;;;;;;2.70;0.40;;;14.00;94.50;;;;;;5074234;28;20021;-73
2022/09/25 02:32:58;;;;;;;6.03;0.55;;;14.00;94.40;;;;;;5074305;28;20024;-73
2022/09/25 02:35:25;;;;;;;1.85;0.30;;;14.10;94.50;;;;;;5074245;28;20021;-73
2022/09/25 02:37:52;;;;;;;7.65;0.52;;;14.10;94.40;;;;;;5073717;28;20031;-73
2022/09/25 02:40:21;;;;;;;3.55;0.45;;;14.00;94.30;;;;;;5074350;28;20047;-73
2022/09/25 02:42:49;;;;;;;3.65;0.47;;;14.00;94.40;;;;;;5073955;28;20464;-73
2022/09/25 02:45:35;;;;;;;7.32;0.93;;;13.90;94.40;;;;;;5074012;28;20021;-73
2022/09/25 02:48:30;;;;;;;3.97;0.70;;;13.90;94.50;;;;;;5073913;28;20020;-73
2022/09/25 02:51:11;;;;;;;3.13;0.52;;;13.90;94.50;;;;;;5073912;28;20021;-73
2022/09/25 02:53:52;;;;;;;6.25;0.60;;;14.00;94.50;;;;;;5073937;28;20027;-73
2022/09/25 02:56:24;;;;;;;6.53;0.85;;;14.00;94.60;;;;;;5073795;28;20030;-73
2022/09/25 02:59:05;;;;;;;3.90;0.30;;;14.10;94.60;;;;;;5073458;28;20021;-73
2022/09/25 03:01:34;;;;;;;2.85;0.43;;;14.10;94.50;;;;;;5073724;28;20032;-73
2022/09/25 03:04:00;;;;;;;3.25;0.40;;;14.10;94.50;;;;;;5073602;28;20024;-73
2022/09/25 03:06:27;;;;;;;5.38;0.43;;;14.00;94.40;;;;;;5073483;28;20032;-73
2022/09/25 03:08:55;;;;;;;3.60;0.60;;;14.10;94.40;;;;;;5073387;28;20503;-73
2022/09/25 03:11:22;;;;;;;4.55;0.35;;;14.00;94.40;;;;;;5072265;28;20036;-73
2022/09/25 03:14:00;;;;;;;6.72;0.50;;;14.00;94.50;;;;;;5073741;28;20025;-73
2022/09/25 03:16:46;;;;;;;2.92;0.30;;;14.00;94.40;;;;;;5073736;28;20155;-73
2022/09/25 03:19:11;;;;;;;4.55;0.40;;;14.00;94.60;;;;;;5073442;28;20107;-73
2022/09/25 03:21:37;;;;;;;3.20;0.20;;;14.10;94.70;;;;;;5073395;28;20162;-73
2022/09/25 03:24:03;;;;;;;4.55;0.50;;;14.10;94.50;;;;;;5073255;28;20369;-73
2022/09/25 03:26:29;;;;;;;2.25;0.20;;;14.10;94.40;;;;;;5073389;28;20028;-73
2022/09/25 03:28:55;;;;;;;3.05;0.40;;;14.10;94.40;;;;;;5073074;28;20060;-73
2022/09/25 03:31:20;;;;;;;4.65;0.30;;;14.00;94.30;;;;;;5073328;28;20361;-73
2022/09/25 03:33:46;;;;;;;4.47;0.80;;;14.00;94.50;;;;;;5073564;28;20138;-73
2022/09/25 03:36:13;;;;;;;6.38;0.93;;;14.00;94.40;;;;;;5073485;28;20452;-73
2022/09/25 03:38:40;;;;;;;4.13;0.50;;;14.00;94.40;;;;;;5073492;28;20111;-73
2022/09/25 03:41:07;;;;;;;1.55;0.30;;;13.90;94.50;;;;;;5072981;28;20028;-73
2022/09/25 03:43:38;;;;;;;6.90;0.57;;;14.00;94.60;;;;;;5073107;28;20089;-73
2022/09/25 03:46:05;;;;;;;3.45;0.30;;;14.00;94.50;;;;;;5073220;28;20063;-73
2022/09/25 03:48:31;;;;;;;3.38;0.50;;;14.00;94.60;;;;;;5073288;28;20048;-73
2022/09/25 03:50:57;;;;;;;5.85;0.60;;;14.10;94.50;;;;;;5073056;28;20052;-73
2022/09/25 03:53:26;;;;;;;2.42;0.35;;;14.00;94.40;;;;;;5073085;28;20048;-73
2022/09/25 03:55:52;;;;;;;4.82;0.40;;;13.90;94.50;;;;;;5073151;28;20141;-73
2022/09/25 03:58:18;;;;;;;5.40;0.57;;;13.90;94.50;;;;;;5073138;28;20484;-73
2022/09/25 04:00:45;;;;;;;4.40;0.50;;;13.90;94.60;;;;;;5072997;28;20078;-73
2022/09/25 04:03:11;;;;;;;5.57;0.60;;;13.90;94.50;;;;;;5073013;28;20032;-73
2022/09/25 04:05:38;;;;;;;7.15;0.90;;;13.80;94.50;;;;;;5073136;28;20059;-73
2022/09/25 04:08:04;;;;;;;7.03;1.00;;;13.70;94.60;;;;;;5073025;28;20067;-73
2022/09/25 04:10:31;;;;;;;3.42;0.57;;;13.60;94.70;;;;;;5073096;28;20104;-73
2022/09/25 04:12:57;;;;;;;3.92;0.70;;;13.50;94.90;;;;;;5072976;28;20380;-73
2022/09/25 04:15:23;;;;;;;3.67;0.60;;;13.50;95.30;;;;;;5072452;28;20025;-73
2022/09/25 04:17:49;;;;;;;3.42;0.70;;;13.40;95.00;;;;;;5073038;28;20021;-73
2022/09/25 04:20:15;;;;;;;3.00;0.60;;;13.40;95.10;;;;;;5073027;28;20021;-73
2022/09/25 04:22:41;;;;;;;4.15;0.50;;;13.40;95.10;;;;;;5075445;28;20032;-73
2022/09/25 04:25:08;;;;;;;4.70;0.75;;;13.40;95.20;;;;;;5076951;28;20040;-73
2022/09/25 04:27:36;;;;;;;6.43;0.70;;;13.30;95.20;;;;;;5076379;28;20126;-73
2022/09/25 04:30:04;;;;;;;2.55;0.32;;;13.20;95.40;;;;;;5076282;28;20036;-73
2022/09/25 04:35:14;;;;;;;4.38;0.65;;;13.20;95.60;;;;;;5076628;28;20035;-73
2022/09/25 04:37:39;;;;;;;2.85;0.38;;;13.30;95.50;;;;;;5076287;28;20021;-73
2022/09/25 04:40:05;;;;;;;3.72;1.02;;;13.20;95.50;;;;;;5076478;28;20086;-73
2022/09/25 04:42:31;;;;;;;3.65;0.75;;;13.10;95.60;;;;;;5076482;28;20084;-73
2022/09/25 04:44:57;;;;;;;3.35;0.70;;;13.00;95.80;;;;;;5076245;28;20028;-73
2022/09/25 04:47:25;;;;;;;3.47;0.95;;;13.00;96.10;;;;;;5076349;28;20017;-73
2022/09/25 04:49:51;;;;;;;6.63;0.90;;;13.00;95.90;;;;;;5076403;28;20384;-73
2022/09/25 04:52:18;;;;;;;3.90;0.77;;;13.10;95.80;;;;;;5076416;28;20020;-73
2022/09/25 04:54:45;;;;;;;3.65;0.30;;;13.00;96.00;;;;;;5076247;28;20028;-73
2022/09/25 04:57:21;;;;;;;4.35;0.70;;;13.00;96.10;;;;;;5076018;28;20063;-73
2022/09/25 04:59:47;;;;;;;3.90;0.57;;;13.00;96.00;;;;;;5075919;28;20492;-73
2022/09/25 05:02:13;;;;;;;4.45;0.93;;;13.00;96.00;;;;;;5076107;28;20024;-73
2022/09/25 05:04:39;;;;;;;5.80;0.95;;;13.00;95.90;;;;;;5076145;28;20025;-73
2022/09/25 05:07:05;;;;;;;5.90;0.60;;;13.00;95.90;;;;;;5075875;28;20043;-73
2022/09/25 05:09:31;;;;;;;3.42;1.00;;;13.00;95.90;;;;;;5075983;28;20529;-73
2022/09/25 05:11:56;;;;;;;6.40;0.85;;;13.00;95.80;;;;;;5075806;28;20086;-73
2022/09/25 05:14:22;;;;;;;5.00;0.77;;;12.90;95.90;;;;;;5075946;28;20032;-73
2022/09/25 05:16:48;;;;;;;4.82;1.05;;;12.80;95.90;;;;;;5075867;28;20028;-73
2022/09/25 05:19:16;;;;;;;4.25;0.93;;;12.70;96.00;;;;;;5075388;28;20020;-73
2022/09/25 05:21:42;;;;;;;2.97;0.88;;;12.60;96.10;;;;;;5075763;28;20033;-73
2022/09/25 05:24:09;;;;;;;3.17;1.05;;;12.60;96.20;;;;;;5075647;28;20052;-73
2022/09/25 05:26:36;;;;;;;2.42;0.73;;;12.70;96.20;;;;;;5075439;28;20024;-73
2022/09/25 05:29:03;;;;;;;2.30;0.85;;;12.60;96.10;;;;;;5075283;28;20130;-73
2022/09/25 05:31:30;;;;;;;4.97;0.85;;;12.50;96.20;;;;;;5075452;28;20024;-73
2022/09/25 05:33:56;;;;;;;2.80;0.80;;;12.50;96.30;;;;;;5074037;28;20476;-73
2022/09/25 05:36:22;;;;;;;3.10;0.60;;;12.50;96.30;;;;;;5075432;28;20031;-73
2022/09/25 05:38:48;;;;;;;2.15;1.02;;;12.50;96.20;;;;;;5075273;28;20120;-73
2022/09/25 05:41:13;;;;;;;5.35;1.40;;;12.60;96.30;;;;;;5075194;28;20051;-73
2022/09/25 05:43:41;;;;;;;3.28;1.65;;;12.60;96.10;;;;;;5075134;28;20032;-73
2022/09/25 05:46:07;;;;;;;3.25;1.42;;;12.40;96.10;;;;;;5075404;28;20536;-73
2022/09/25 05:48:33;;;;;;;3.40;1.70;;;12.40;96.40;;;;;;5075222;28;20151;-73
2022/09/25 05:50:58;;;;;;;3.67;1.73;;;12.40;96.50;;;;;;5074505;28;20081;-73
2022/09/25 05:53:25;;;;;;;3.83;1.00;;;12.30;96.50;;;;;;5074889;28;20029;-73
2022/09/25 05:55:52;;;;;;;2.75;1.00;;;12.40;96.60;;;;;;5074918;28;20197;-73
2022/09/25 05:58:18;;;;;;;5.00;1.55;;;12.40;96.60;;;;;;5075089;28;20106;-73
2022/09/25 06:00:44;;;;;;;3.72;0.80;;;12.50;96.60;;;;;;5074950;28;20024;-73
2022/09/25 06:03:10;;;;;;;1.35;1.08;;;12.60;96.40;;;;;;5074847;28;20016;-73
2022/09/25 06:05:36;;;;;;;4.05;1.15;;;12.60;96.30;;;;;;5075119;28;20028;-73
2022/09/25 06:08:02;;;;;;;2.78;1.08;;;12.60;96.30;;;;;;5074538;28;20044;-73
2022/09/25 06:10:29;;;;;;;4.03;1.33;;;12.60;96.30;;;;;;5074604;28;20025;-73
2022/09/25 06:12:59;;;;;;;4.05;1.20;;;12.60;96.40;;;;;;5074848;28;20047;-73
2022/09/25 06:15:27;;;;;;;4.55;0.90;;;12.60;96.40;;;;;;5074497;28;20028;-73
2022/09/25 06:17:53;;;;;;;2.30;0.95;;;12.60;96.40;;;;;;5074492;28;20028;-73
2022/09/25 06:20:20;;;;;;;2.17;0.73;;;12.70;96.50;;;;;;5074396;28;20541;-73
2022/09/25 06:22:52;;;;;;;5.10;0.93;;;12.80;96.30;;;;;;5074510;28;20108;-73
2022/09/25 06:25:18;;;;;;;3.03;0.80;;;12.80;96.20;;;;;;5074383;28;20468;-73
2022/09/25 06:27:43;;;;;;;3.15;1.05;;;12.80;96.30;;;;;;5074264;28;20158;-73
2022/09/25 06:30:09;;;;;;;3.47;0.82;;;12.70;96.40;;;;;;5074157;28;20028;-73
2022/09/25 06:32:35;;;;;;;2.80;0.60;;;12.70;96.40;;;;;;5074222;28;20021;-73
2022/09/25 06:35:00;;;;;;;3.40;1.02;;;12.70;96.50;;;;;;5074271;28;20367;-73
2022/09/25 06:37:26;;;;;;;2.60;1.20;;;12.60;96.60;;;;;;5073857;28;20463;-73
2022/09/25 06:39:51;;;;;;;2.85;0.70;;;12.60;96.70;;;;;;5074016;28;20033;-73
2022/09/25 06:42:17;;;;;;;3.47;1.02;;;12.60;96.70;;;;;;5074010;28;20017;-73
2022/09/25 06:44:43;;;;;;;2.25;0.80;;;12.60;96.80;;;;;;5073970;28;20039;-73
2022/09/25 06:47:11;;;;;;;2.45;0.70;;;12.70;96.80;;;;;;5074216;28;20029;-73
2022/09/25 06:49:37;;;;;;;2.70;0.47;;;12.80;96.90;;;;;;5073784;28;20028;-73
2022/09/25 06:52:02;;;;;;;0.95;0.45;;;12.90;96.90;;;;;;5073473;28;20062;-73
2022/09/25 06:54:30;;;;;;;2.30;0.45;;;13.10;96.80;;;;;;5074129;28;20031;-73
2022/09/25 06:56:55;;;;;;;1.45;0.30;;;13.20;96.60;;;;;;5074049;28;20107;-73
2022/09/25 06:59:21;;;;;;;2.80;0.40;;;13.20;96.50;;;;;;5073533;28;20052;-73
2022/09/25 07:01:46;;;;;;;2.20;0.50;;;13.30;96.30;;;;;;5073608;28;20024;-73
2022/09/25 07:04:12;;;;;;;1.77;0.40;;;13.40;96.10;;;;;;5073677;28;20021;-73
2022/09/25 07:06:38;;;;;;;2.97;0.60;;;13.50;95.90;;;;;;5073344;28;20029;-73
2022/09/25 07:09:03;;;;;;;2.63;0.52;;;13.40;95.90;;;;;;5073829;28;20035;-73
2022/09/25 07:11:32;;;;;;;2.55;0.47;;;13.40;95.90;;;;;;5072896;28;20029;-73
2022/09/25 07:13:58;;;;;;;2.42;0.55;;;13.40;96.00;;;;;;5073715;28;20474;-72
2022/09/25 07:16:29;;;;;;;1.63;0.40;;;13.50;96.00;;;;;;5071994;28;20147;-73
2022/09/25 07:18:58;;;;;;;2.72;0.47;;;13.40;95.90;;;;;;5072428;28;20035;-73
2022/09/25 07:21:26;;;;;;;2.63;0.50;;;13.40;96.00;;;;;;5071812;28;20491;-73
2022/09/25 07:23:52;;;;;;;2.58;0.50;;;13.60;96.30;;;;;;5072335;28;20395;-73
2022/09/25 07:26:23;;;;;;;5.53;0.35;;;13.70;96.20;;;;;;5071136;28;20029;-73
2022/09/25 07:28:58;;;;;;;2.50;0.73;;;13.80;96.30;;;;;;5072940;28;20491;-73
2022/09/25 07:31:28;;;;;;;3.58;0.80;;;13.90;96.20;;;;;;5073361;28;20024;-73
2022/09/25 07:33:54;;;;;;;4.25;0.73;;;13.90;96.00;;;;;;5072861;28;20058;-73
2022/09/25 07:36:20;;;;;;;6.10;1.77;;;13.80;96.10;;;;;;5072685;28;20035;-73
2022/09/25 07:38:51;;;;;;;5.18;1.75;;;13.80;96.00;;;;;;5073171;28;20117;-73
2022/09/25 07:41:18;;;;;;;6.07;1.90;;;13.80;96.00;;;;;;5073155;28;20115;-73
2022/09/25 07:43:43;;;;;;;4.07;1.45;;;13.80;96.30;;;;;;5073051;28;20035;-73
2022/09/25 07:46:10;;;;;;;5.53;1.67;;;13.90;96.60;;;;;;5072464;28;20033;-73
2022/09/25 07:48:36;;;;;;;5.93;1.58;;;13.90;96.70;;;;;;5071931;28;20039;-73
2022/09/25 07:51:07;;;;;;;4.20;1.35;;;13.80;96.90;;;;;;5071966;28;20025;-73
2022/09/25 07:53:33;;;;;;;5.65;1.50;;;13.90;96.70;;;;;;5071665;28;20075;-74
2022/09/25 07:56:00;;;;;;;3.17;1.13;;;14.00;96.60;;;;;;5074129;28;20020;-73
2022/09/25 07:58:27;;;;;;;8.10;1.85;;;14.00;96.50;;;;;;5079534;28;20479;-73
2022/09/25 08:00:54;;;;;;;5.50;1.05;;;14.10;96.40;;;;;;5079586;28;20111;-73
2022/09/25 08:03:20;;;;;;;4.35;0.98;;;14.20;96.40;;;;;;5079526;28;20024;-73
2022/09/25 08:05:46;;;;;;;5.35;0.90;;;14.40;96.40;;;;;;5079913;28;20024;-74
2022/09/25 08:08:12;;;;;;;6.22;1.00;;;14.50;96.30;;;;;;5079485;28;20119;-74
2022/09/25 08:10:37;;;;;;;5.47;1.05;;;14.60;96.20;;;;;;5078809;28;20111;-73
2022/09/25 08:13:03;;;;;;;8.85;1.13;;;14.70;96.10;;;;;;5079428;28;20108;-73
2022/09/25 08:15:29;;;;;;;3.83;0.70;;;14.90;95.80;;;;;;5079605;28;20077;-73
2022/09/25 08:17:54;;;;;;;7.15;1.15;;;15.10;95.50;;;;;;5079710;28;20423;-73
2022/09/25 08:20:20;;;;;;;5.95;0.75;;;15.30;95.40;;;;;;5079351;28;20025;-73
2022/09/25 08:22:46;;;;;;;4.53;0.50;;;15.40;94.80;;;;;;5079747;28;20380;-73
2022/09/25 08:25:12;;;;;;;4.75;0.50;;;15.50;94.50;;;;;;5079463;28;20093;-73
2022/09/25 08:27:39;;;;;;;1.63;0.38;;;15.70;94.20;;;;;;5079379;28;20505;-73
2022/09/25 08:30:07;;;;;;;2.00;0.40;;;15.90;94.10;;;;;;5079679;28;20056;-73
2022/09/25 08:32:34;;;;;;;3.00;0.45;;;16.00;93.90;;;;;;5079225;28;20102;-73
2022/09/25 08:35:00;;;;;;;2.95;0.40;;;16.20;93.60;;;;;;5079411;28;20159;-73
2022/09/25 08:37:26;;;;;;;4.90;0.50;;;16.30;93.30;;;;;;5078309;28;20024;-73
2022/09/25 08:39:52;;;;;;;2.95;0.30;;;16.40;93.20;;;;;;5078753;28;20016;-73
2022/09/25 08:42:29;;;;;;;3.30;0.40;;;16.50;93.30;;;;;;5078331;28;20021;-73
2022/09/25 08:50:32;;;;;;;2.75;0.60;;;16.80;92.50;;;;;;5059494;28;20036;-73
2022/09/25 08:53:24;;;;;;;4.40;0.73;;;16.80;92.60;;;;;;5078175;28;20032;-73
2022/09/25 08:58:41;;;;;;;5.78;0.73;;;16.90;92.20;;;;;;5077872;28;20028;-73
2022/09/25 09:01:11;;;;;;;4.20;0.77;;;16.90;91.90;;;;;;5078148;28;20031;-73
2022/09/25 09:03:45;;;;;;;5.95;1.33;;;17.00;91.70;;;;;;5079531;28;20025;-72
2022/09/25 09:06:14;;;;;;;6.85;0.40;;;17.10;91.50;;;;;;5078836;28;20078;-72
2022/09/25 09:08:41;;;;;;;2.35;0.30;;;17.10;92.00;;;;;;5076071;28;20043;-72
2022/09/25 09:11:21;;;;;;;4.22;0.30;;;17.10;91.00;;;;;;5075889;28;20099;-72
2022/09/25 09:14:05;;;;;;;3.38;0.30;;;17.10;90.90;;;;;;5075728;28;20021;-71
2022/09/25 09:16:43;;;;;;;4.20;0.77;;;17.20;91.00;;;;;;5075768;28;20017;-72
2022/09/25 09:19:10;;;;;;;4.20;0.20;;;17.20;91.20;;;;;;5075994;28;20033;-72
2022/09/25 09:21:45;;;;;;;3.60;0.35;;;17.30;90.90;;;;;;5075731;28;20471;-72
2022/09/25 09:24:39;;;;;;;2.88;0.20;;;17.40;90.70;;;;;;5075694;28;20033;-73
2022/09/25 09:27:23;;;;;;;5.60;0.32;;;17.40;90.30;;;;;;5075586;28;20107;-73
2022/09/25 09:30:00;;;;;;;3.80;0.20;;;17.40;90.60;;;;;;5075497;28;20484;-73
2022/09/25 09:32:32;;;;;;;4.47;0.50;;;17.50;90.50;;;;;;5075114;28;20025;-73
2022/09/25 09:35:21;;;;;;;3.47;0.30;;;17.60;90.40;;;;;;5075411;28;20031;-73
2022/09/25 09:38:06;;;;;;;3.42;0.30;;;17.60;90.40;;;;;;5075738;28;20078;-73
2022/09/25 09:41:13;;;;;;;2.60;0.30;;;17.80;90.90;;;;;;5075502;28;20078;-74
2022/09/25 09:44:05;;;;;;;4.15;0.55;;;17.90;89.80;;;;;;5041380;28;20024;-74
2022/09/25 09:46:55;;;;;;;5.03;0.30;;;18.00;89.10;;;;;;5075120;28;20510;-73
2022/09/25 09:49:32;;;;;;;2.85;0.20;;;18.10;87.30;;;;;;5075105;28;20036;-74
2022/09/25 09:52:08;;;;;;;1.90;0.30;;;18.20;87.30;;;;;;5075444;28;20357;-74
2022/09/25 09:54:54;;;;;;;2.03;0.17;;;18.20;87.60;;;;;;5075321;28;20036;-74
2022/09/25 09:57:26;;;;;;;4.32;0.30;;;18.10;86.50;;;;;;5074918;28;20099;-73
2022/09/25 10:00:15;;;;;;;2.17;0.32;;;18.30;86.40;;;;;;5075144;28;20035;-73
2022/09/25 10:03:05;;;;;;;2.78;0.30;;;18.40;85.50;;;;;;5074996;28;20036;-71
2022/09/25 10:05:33;;;;;;;2.72;0.30;;;18.50;85.20;;;;;;5075151;28;20033;-71
2022/09/25 10:07:58;;;;;;;2.78;0.20;;;18.50;85.00;;;;;;5074905;28;20028;-71
2022/09/25 10:10:40;;;;;;;1.50;0.10;;;18.40;85.30;;;;;;5074881;28;20372;-72
2022/09/25 10:13:12;;;;;;;1.85;0.20;;;18.50;83.90;;;;;;5074879;28;20020;-72
2022/09/25 10:15:43;;;;;;;3.38;0.20;;;18.50;82.90;;;;;;5074742;28;20020;-73
2022/09/25 10:18:10;;;;;;;4.57;0.20;;;18.60;84.10;;;;;;5074725;28;20036;-73
2022/09/25 10:20:54;;;;;;;3.20;0.20;;;18.60;83.60;;;;;;5072962;28;20035;-73
2022/09/25 10:23:46;;;;;;;4.30;0.28;;;18.60;81.60;;;;;;5074528;28;20028;-73
2022/09/25 10:26:29;;;;;;;3.05;0.35;;;18.70;83.70;;;;;;5072672;28;20502;-73
2022/09/25 10:28:57;;;;;;;2.50;0.20;;;18.70;83.60;;;;;;5073235;28;20063;-73
2022/09/25 10:31:25;;;;;;;2.00;0.20;;;18.80;85.10;;;;;;5073143;28;20020;-73
2022/09/25 10:34:22;;;;;;;2.78;0.20;;;18.80;81.70;;;;;;5074355;28;20392;-73
2022/09/25 10:36:50;;;;;;;3.95;0.38;;;18.80;84.30;;;;;;5062224;28;20029;-73
2022/09/25 10:39:35;;;;;;;3.65;0.20;;;18.90;82.70;;;;;;5073803;28;20036;-73
2022/09/25 10:42:07;;;;;;;2.25;0.20;;;19.00;80.20;;;;;;5074439;28;20089;-73
2022/09/25 10:44:35;;;;;;;2.75;0.10;;;19.00;80.70;;;;;;5074103;28;20024;-73
2022/09/25 10:50:13;;;;;;;1.65;0.10;;;19.30;78.80;;;;;;5071850;28;20110;-73
2022/09/25 10:52:51;;;;;;;3.55;0.10;;;19.40;81.10;;;;;;5074064;28;20086;-73
2022/09/25 10:55:21;;;;;;;1.98;0.10;;;19.50;79.90;;;;;;5073690;28;20031;-72
2022/09/25 10:57:47;;;;;;;3.03;0.20;;;19.60;79.50;;;;;;5073807;28;20033;-73
2022/09/25 11:00:24;;;;;;;3.20;0.20;;;19.50;77.20;;;;;;5073978;28;20024;-72
2022/09/25 11:03:01;;;;;;;2.28;0.20;;;19.50;78.00;;;;;;5073874;28;20099;-72
2022/09/25 11:05:36;;;;;;;2.80;0.20;;;19.50;78.10;;;;;;5073878;28;20108;-72
2022/09/25 11:08:06;;;;;;;2.88;0.10;;;19.40;77.30;;;;;;5073607;28;20033;-72
2022/09/25 11:10:50;;;;;;;3.17;0.10;;;19.30;77.50;;;;;;5073496;28;20499;-72
2022/09/25 11:13:28;;;;;;;2.47;0.20;;;19.30;78.10;;;;;;5073592;28;20456;-72
2022/09/25 11:16:00;;;;;;;2.38;0.20;;;19.50;78.00;;;;;;5073325;28;20434;-72
2022/09/25 11:18:40;;;;;;;3.38;0.20;;;19.60;75.60;;;;;;5073447;28;20490;-72
2022/09/25 11:21:39;;;;;;;2.85;0.20;;;19.80;72.90;;;;;;5073342;28;20107;-72
2022/09/25 11:24:23;;;;;;;4.03;0.20;;;19.70;72.20;;;;;;5067523;28;20032;-73
2022/09/25 11:27:18;;;;;;;1.00;0.10;;;19.70;72.10;;;;;;5073567;28;20024;-72
2022/09/25 11:30:10;;;;;;;3.28;0.20;;;19.90;69.50;;;;;;5073079;28;20036;-72
2022/09/25 11:32:59;;;;;;;0.65;0.10;;;20.00;70.20;;;;;;5072918;28;20095;-73
2022/09/25 11:35:49;;;;;;;5.47;0.20;;;20.20;72.50;;;;;;5073121;28;20044;-73
2022/09/25 11:41:47;;;;;;;1.52;0.10;;;20.10;70.70;;;;;;5072902;28;20073;-73
2022/09/25 11:44:41;;;;;;;3.80;0.20;;;19.90;70.50;;;;;;5073300;28;20056;-72
2022/09/25 11:47:20;;;;;;;1.80;0.30;;;19.90;71.20;;;;;;5073056;28;20502;-72
2022/09/25 11:49:52;;;;;;;4.15;0.20;;;20.00;68.50;;;;;;5072966;28;20123;-73
2022/09/25 11:52:26;;;;;;;2.67;0.20;;;20.00;68.10;;;;;;5072883;28;20048;-73
2022/09/25 11:55:13;;;;;;;4.57;0.20;;;19.80;69.70;;;;;;5072627;28;20043;-73
2022/09/25 11:58:10;;;;;;;1.98;0.10;;;19.90;72.90;;;;;;5072955;28;20020;-73
2022/09/25 12:01:07;;;;;;;1.63;0.10;;;20.00;70.50;;;;;;5073304;28;20032;-73
2022/09/25 12:03:59;;;;;;;1.95;0.20;;;20.00;70.70;;;;;;5073150;28;20073;-73
2022/09/25 12:06:52;;;;;;;1.95;0.10;;;20.00;72.00;;;;;;5072798;28;20487;-73
2022/09/25 12:09:42;;;;;;;2.65;0.20;;;19.90;70.40;;;;;;5073173;28;20060;-73
2022/09/25 12:12:59;;;;;;;2.15;0.15;;;19.70;70.90;;;;;;5072738;28;20017;-73
2022/09/25 12:15:27;;;;;;;2.03;0.10;;;19.70;70.40;;;;;;5038898;28;20476;-73
2022/09/25 12:17:56;;;;;;;2.30;0.20;;;19.50;70.50;;;;;;5072968;28;20033;-74
2022/09/25 12:20:50;;;;;;;3.03;0.10;;;19.50;71.40;;;;;;5072877;28;20024;-73
2022/09/25 12:23:43;;;;;;;2.78;0.20;;;19.30;72.30;;;;;;5050211;28;20040;-73
2022/09/25 12:26:34;;;;;;;5.05;0.20;;;19.20;73.30;;;;;;5073185;28;20049;-74
2022/09/25 12:29:03;;;;;;;3.22;0.20;;;19.10;74.20;;;;;;5072578;28;20531;-73
2022/09/25 12:31:48;;;;;;;3.65;0.30;;;19.10;75.30;;;;;;5072754;28;20048;-73
2022/09/25 12:34:37;;;;;;;3.25;0.40;;;19.10;75.50;;;;;;5072409;28;20025;-73
2022/09/25 12:37:26;;;;;;;3.58;0.20;;;19.20;77.20;;;;;;5072989;28;20021;-73
2022/09/25 12:39:58;;;;;;;3.03;0.20;;;19.50;76.50;;;;;;5072590;28;20063;-73
2022/09/25 12:42:40;;;;;;;2.88;0.40;;;19.80;72.90;;;;;;5072971;28;20103;-72
2022/09/25 12:45:32;;;;;;;4.43;0.10;;;19.90;69.70;;;;;;5076428;28;20450;-72
2022/09/25 12:48:14;;;;;;;2.80;0.20;;;20.00;69.80;;;;;;5076090;28;20028;-72
2022/09/25 12:51:14;;;;;;;1.85;0.10;;;20.30;68.90;;;;;;5076281;28;20078;-72
2022/09/25 12:53:56;;;;;;;4.38;0.20;;;20.30;66.70;;;;;;5076054;28;20024;-73
2022/09/25 12:56:28;;;;;;;2.33;0.10;;;20.50;68.00;;;;;;5076253;28;20106;-73
2022/09/25 12:59:07;;;;;;;2.03;0.10;;;20.80;67.50;;;;;;5075974;28;20420;-73
2022/09/25 13:02:05;;;;;;;1.63;0.10;;;20.90;67.30;;;;;;5076287;28;20027;-73
2022/09/25 13:05:22;;;;;;;2.45;0.10;;;21.00;67.60;;;;;;5075986;28;20032;-73
2022/09/25 13:08:09;;;;;;;1.52;0.10;;;21.00;66.90;;;;;;5052382;28;20111;-73
2022/09/25 13:10:47;;;;;;;1.58;0.10;;;20.80;66.50;;;;;;5076476;28;20032;-72
2022/09/25 13:13:24;;;;;;;2.65;0.13;;;20.80;66.20;;;;;;5076108;28;20099;-73
2022/09/25 13:15:55;;;;;;;2.70;0.20;;;20.70;65.60;;;;;;5075846;28;20415;-72
2022/09/25 13:18:23;;;;;;;1.88;0.20;;;20.60;66.10;;;;;;5075734;28;20435;-72
2022/09/25 13:20:50;;;;;;;1.92;0.10;;;20.60;67.10;;;;;;5075673;28;20074;-72
2022/09/25 13:23:40;;;;;;;2.90;0.20;;;20.70;67.00;;;;;;5076010;28;20029;-72
2022/09/25 13:26:13;;;;;;;1.75;0.13;;;20.80;66.00;;;;;;5075774;28;20082;-73
2022/09/25 13:28:48;;;;;;;1.48;0.10;;;20.80;65.30;;;;;;5075385;28;20055;-73
2022/09/25 13:31:21;;;;;;;3.78;0.20;;;20.90;66.70;;;;;;5075420;28;20154;-73
2022/09/25 13:33:51;;;;;;;3.22;0.17;;;21.00;66.80;;;;;;5075775;28;20078;-72
2022/09/25 13:36:24;;;;;;;3.53;0.20;;;21.00;67.60;;;;;;5075278;28;20483;-72
2022/09/25 13:41:35;;;;;;;4.50;0.82;;;20.90;68.10;;;;;;5075459;28;19912;-72
2022/09/25 13:44:39;;;;;;;4.97;0.10;;;20.80;66.70;;;;;;5075292;28;20036;-73